createdAt,value
2022-10-05T00:01:48.465Z,68.41
2022-10-05T00:04:16.689Z,68.02
2022-10-05T00:06:44.577Z,68.25
2022-10-05T00:09:12.302Z,68.37
2022-10-05T00:11:40.097Z,68.30
2022-10-05T00:14:08.032Z,68.87
2022-10-05T00:16:35.620Z,68.91
2022-10-05T00:19:03.272Z,68.96
2022-10-05T00:21:30.817Z,69.10
2022-10-05T00:23:58.398Z,69.19
2022-10-05T00:26:26.637Z,68.91
2022-10-05T00:28:54.185Z,69.58
2022-10-05T00:31:21.811Z,69.30
2022-10-05T00:33:49.472Z,68.99
2022-10-05T00:36:17.029Z,68.75
2022-10-05T00:38:44.994Z,68.46
2022-10-05T00:41:12.576Z,68.36
2022-10-05T00:43:40.133Z,68.82
2022-10-05T00:46:08.856Z,68.69
2022-10-05T00:48:39.247Z,68.73
2022-10-05T00:51:07.168Z,69.32
2022-10-05T00:53:34.869Z,68.65
2022-10-05T00:56:02.435Z,69.10
2022-10-05T00:58:29.958Z,69.07
2022-10-05T01:00:57.776Z,69.12
2022-10-05T01:03:25.391Z,68.72
2022-10-05T01:05:52.929Z,69.28
2022-10-05T01:08:20.491Z,69.16
2022-10-05T01:10:48.091Z,69.06
2022-10-05T01:13:15.815Z,69.03
2022-10-05T01:15:43.794Z,69.25
2022-10-05T01:18:11.397Z,69.82
2022-10-05T01:20:39.608Z,69.24
2022-10-05T01:23:07.154Z,69.00
2022-10-05T01:25:34.943Z,69.74
2022-10-05T01:28:02.955Z,69.97
2022-10-05T01:30:30.555Z,70.30
2022-10-05T01:32:58.142Z,69.24
2022-10-05T01:35:25.728Z,69.85
2022-10-05T01:37:53.671Z,69.85
2022-10-05T01:40:21.592Z,69.90
2022-10-05T01:42:49.134Z,69.89
2022-10-05T01:45:16.687Z,69.25
2022-10-05T01:47:44.731Z,69.55
2022-10-05T01:50:12.297Z,69.87
2022-10-05T01:52:40.224Z,69.20
2022-10-05T01:55:07.823Z,69.19
2022-10-05T01:57:35.363Z,69.24
2022-10-05T02:00:03.388Z,69.99
2022-10-05T02:02:31.030Z,69.40
2022-10-05T02:05:02.977Z,69.61
2022-10-05T02:07:31.095Z,69.71
2022-10-05T02:09:58.680Z,69.10
2022-10-05T02:12:26.288Z,68.98
2022-10-05T02:14:55.653Z,69.06
2022-10-05T02:17:23.601Z,69.92
2022-10-05T02:19:51.154Z,69.35
2022-10-05T02:22:18.698Z,69.80
2022-10-05T02:24:46.372Z,69.67
2022-10-05T02:27:14.769Z,70.00
2022-10-05T02:29:42.709Z,69.91
2022-10-05T02:32:10.316Z,69.75
2022-10-05T02:34:37.888Z,70.02
2022-10-05T02:37:05.883Z,70.36
2022-10-05T02:39:33.517Z,70.57
2022-10-05T02:42:01.459Z,70.17
2022-10-05T02:44:29.015Z,69.79
2022-10-05T02:46:57.715Z,70.26
2022-10-05T02:49:25.569Z,69.82
2022-10-05T02:51:53.201Z,70.05
2022-10-05T02:54:20.824Z,69.98
2022-10-05T02:56:48.742Z,70.42
2022-10-05T02:59:16.875Z,69.94
2022-10-05T03:01:44.534Z,69.80
2022-10-05T03:04:12.379Z,69.62
2022-10-05T03:06:40.381Z,69.88
2022-10-05T03:09:07.998Z,70.07
2022-10-05T03:11:35.537Z,69.46
2022-10-05T03:14:03.143Z,69.68
2022-10-05T03:16:31.063Z,70.07
2022-10-05T03:18:59.131Z,69.55
2022-10-05T03:21:27.252Z,69.69
2022-10-05T03:23:54.845Z,69.35
2022-10-05T03:26:22.400Z,70.03
2022-10-05T03:28:50.138Z,70.08
2022-10-05T03:31:17.890Z,70.08
2022-10-05T03:33:45.500Z,70.36
2022-10-05T03:36:13.084Z,70.22
2022-10-05T03:38:40.716Z,69.65
2022-10-05T03:41:08.487Z,69.84
2022-10-05T03:43:36.830Z,70.86
2022-10-05T03:46:04.513Z,70.03
2022-10-05T03:48:32.081Z,70.21
2022-10-05T03:50:59.663Z,70.24
2022-10-05T03:53:27.483Z,70.44
2022-10-05T03:55:55.449Z,70.08
2022-10-05T03:58:22.978Z,70.99
2022-10-05T04:00:50.571Z,70.60
2022-10-05T04:03:18.130Z,70.40
2022-10-05T04:05:47.156Z,70.48
2022-10-05T04:08:15.100Z,70.96
2022-10-05T04:10:42.692Z,70.93
2022-10-05T04:13:10.219Z,71.15
2022-10-05T04:15:37.904Z,71.33
2022-10-05T04:18:05.652Z,70.97
2022-10-05T04:20:33.625Z,71.24
2022-10-05T04:23:01.219Z,71.63
2022-10-05T04:25:28.793Z,71.79
2022-10-05T04:27:56.910Z,71.59
2022-10-05T04:30:24.762Z,71.77
2022-10-05T04:32:52.740Z,71.91
2022-10-05T04:35:20.265Z,71.28
2022-10-05T04:37:47.869Z,71.41
2022-10-05T04:40:15.442Z,72.13
2022-10-05T04:42:43.242Z,71.64
2022-10-05T04:45:11.036Z,71.85
2022-10-05T04:47:38.765Z,71.20
2022-10-05T04:50:07.342Z,71.89
2022-10-05T04:52:35.138Z,72.01
2022-10-05T04:55:05.409Z,71.69
2022-10-05T04:57:34.081Z,71.64
2022-10-05T05:00:02.148Z,71.97
2022-10-05T05:02:29.710Z,72.32
2022-10-05T05:04:57.504Z,72.21
2022-10-05T05:07:25.452Z,72.25
2022-10-05T05:09:58.717Z,72.23
2022-10-05T05:12:26.349Z,72.54
2022-10-05T05:14:53.910Z,72.25
2022-10-05T05:17:21.486Z,72.60
2022-10-05T05:19:49.302Z,72.48
2022-10-05T05:22:17.220Z,72.52
2022-10-05T05:24:44.792Z,72.49
2022-10-05T05:27:12.576Z,72.50
2022-10-05T05:29:40.213Z,72.60
2022-10-05T05:32:07.988Z,72.90
2022-10-05T05:34:36.052Z,72.63
2022-10-05T05:37:03.668Z,72.36
2022-10-05T05:39:31.257Z,72.38
2022-10-05T05:41:58.841Z,72.21
2022-10-05T05:44:26.417Z,72.53
2022-10-05T05:47:09.902Z,72.65
2022-10-05T05:49:37.802Z,73.18
2022-10-05T05:52:05.402Z,73.16
2022-10-05T05:54:34.347Z,72.81
2022-10-05T05:57:04.807Z,72.91
2022-10-05T05:59:32.361Z,73.17
2022-10-05T06:02:00.021Z,72.63
2022-10-05T06:04:27.811Z,72.60
2022-10-05T06:06:55.781Z,72.70
2022-10-05T06:09:23.742Z,72.90
2022-10-05T06:11:51.383Z,72.93
2022-10-05T06:14:18.966Z,72.57
2022-10-05T06:16:47.297Z,73.00
2022-10-05T06:19:15.153Z,72.70
2022-10-05T06:21:43.157Z,72.61
2022-10-05T06:24:10.734Z,72.77
2022-10-05T06:26:38.395Z,72.30
2022-10-05T06:29:06.004Z,72.05
2022-10-05T06:31:33.970Z,72.34
2022-10-05T06:34:01.969Z,72.10
2022-10-05T06:36:29.747Z,71.78
2022-10-05T06:38:57.984Z,71.69
2022-10-05T06:41:25.690Z,72.62
2022-10-05T06:43:53.522Z,71.72
2022-10-05T06:46:21.590Z,71.99
2022-10-05T06:48:49.368Z,71.42
2022-10-05T06:51:17.018Z,71.72
2022-10-05T06:53:44.640Z,72.18
2022-10-05T06:56:12.267Z,71.74
2022-10-05T06:58:40.221Z,71.60
2022-10-05T07:01:10.747Z,71.68
2022-10-05T07:03:38.536Z,71.13
2022-10-05T07:06:06.171Z,70.90
2022-10-05T07:08:34.131Z,71.23
2022-10-05T07:11:01.887Z,71.17
2022-10-05T07:13:29.491Z,70.95
2022-10-05T07:15:57.226Z,70.96
2022-10-05T07:18:24.970Z,70.62
2022-10-05T07:20:52.729Z,70.58
2022-10-05T07:23:21.229Z,70.83
2022-10-05T07:25:49.605Z,70.26
2022-10-05T07:28:17.315Z,70.02
2022-10-05T07:30:45.002Z,70.50
2022-10-05T07:33:12.742Z,70.79
2022-10-05T07:35:58.330Z,70.44
2022-10-05T07:38:26.067Z,70.06
2022-10-05T07:40:53.696Z,70.13
2022-10-05T07:43:22.486Z,69.96
2022-10-05T07:45:50.296Z,70.27
2022-10-05T07:48:18.107Z,70.04
2022-10-05T07:50:45.769Z,69.69
2022-10-05T07:53:13.490Z,69.78
2022-10-05T07:55:41.342Z,69.78
2022-10-05T07:58:08.995Z,70.29
2022-10-05T08:00:37.283Z,70.17
2022-10-05T08:03:04.979Z,69.51
2022-10-05T08:05:33.695Z,69.87
2022-10-05T08:08:01.467Z,70.07
2022-10-05T08:10:29.267Z,69.84
2022-10-05T08:12:58.147Z,70.14
2022-10-05T08:15:25.912Z,69.99
2022-10-05T08:17:53.549Z,69.91
2022-10-05T08:20:21.559Z,69.76
2022-10-05T08:22:49.264Z,69.75
2022-10-05T08:25:16.973Z,70.14
2022-10-05T08:27:44.990Z,70.08
2022-10-05T08:30:12.677Z,69.61
2022-10-05T08:32:41.300Z,70.05
2022-10-05T08:35:09.023Z,69.96
2022-10-05T08:37:37.263Z,70.30
2022-10-05T08:40:05.042Z,69.72
2022-10-05T08:42:32.822Z,69.41
2022-10-05T08:45:00.788Z,69.16
2022-10-05T08:47:28.439Z,69.68
2022-10-05T08:49:57.224Z,69.79
2022-10-05T08:52:25.170Z,69.49
2022-10-05T08:54:52.882Z,70.27
2022-10-05T08:57:20.826Z,69.72
2022-10-05T08:59:48.651Z,69.87
2022-10-05T09:02:16.698Z,69.92
2022-10-05T09:04:44.417Z,69.74
2022-10-05T09:07:12.121Z,69.69
2022-10-05T09:09:39.900Z,69.39
2022-10-05T09:12:08.106Z,68.71
2022-10-05T09:14:36.096Z,68.36
2022-10-05T09:17:03.873Z,68.80
2022-10-05T09:19:31.561Z,68.49
2022-10-05T09:21:59.948Z,68.17
2022-10-05T09:24:27.693Z,68.12
2022-10-05T09:26:55.530Z,67.92
2022-10-05T09:29:23.179Z,67.80
2022-10-05T09:31:51.339Z,67.73
2022-10-05T09:34:19.454Z,67.65
2022-10-05T09:36:47.296Z,67.46
2022-10-05T09:39:15.359Z,66.46
2022-10-05T09:41:43.055Z,66.46
2022-10-05T09:44:10.957Z,65.99
2022-10-05T09:46:39.163Z,65.81
2022-10-05T09:49:06.940Z,65.81
2022-10-05T09:51:35.437Z,65.23
2022-10-05T09:54:03.650Z,64.79
2022-10-05T09:56:34.863Z,64.41
2022-10-05T09:59:03.613Z,63.86
2022-10-05T10:01:34.028Z,63.56
2022-10-05T10:04:02.437Z,63.82
2022-10-05T10:06:30.293Z,63.28
2022-10-05T10:08:58.242Z,63.40
2022-10-05T10:11:26.368Z,63.55
2022-10-05T10:13:54.173Z,63.49
2022-10-05T10:16:24.335Z,63.66
2022-10-05T10:18:52.285Z,63.36
2022-10-05T10:21:20.190Z,63.76
2022-10-05T10:23:48.277Z,63.66
2022-10-05T10:26:16.452Z,63.64
2022-10-05T10:28:44.866Z,64.03
2022-10-05T10:31:12.988Z,64.17
2022-10-05T10:33:40.955Z,64.13
2022-10-05T10:36:09.108Z,64.35
2022-10-05T10:38:37.334Z,64.33
2022-10-05T10:41:05.749Z,64.61
2022-10-05T10:43:33.571Z,64.18
2022-10-05T10:46:01.423Z,64.33
2022-10-05T10:48:29.489Z,64.12
2022-10-05T10:50:57.395Z,64.73
2022-10-05T10:53:25.792Z,64.03
2022-10-05T10:55:53.905Z,64.22
2022-10-05T10:58:21.894Z,63.99
2022-10-05T11:00:52.478Z,63.32
2022-10-05T11:03:20.305Z,63.23
2022-10-05T11:05:48.894Z,63.01
2022-10-05T11:08:16.883Z,62.17
2022-10-05T11:10:46.375Z,61.90
2022-10-05T11:13:14.277Z,61.32
2022-10-05T11:15:42.105Z,60.94
2022-10-05T11:18:10.353Z,60.95
2022-10-05T11:20:38.317Z,60.65
2022-10-05T11:23:06.634Z,59.71
2022-10-05T11:25:34.904Z,58.39
2022-10-05T11:28:02.859Z,57.13
2022-10-05T11:30:31.187Z,57.50
2022-10-05T11:33:00.416Z,56.66
2022-10-05T11:35:28.294Z,55.15
2022-10-05T11:37:56.095Z,53.73
2022-10-05T11:40:24.056Z,54.65
2022-10-05T11:42:52.087Z,55.32
2022-10-05T11:45:21.815Z,55.38
2022-10-05T11:47:49.696Z,56.53
2022-10-05T11:50:17.859Z,56.07
2022-10-05T11:52:45.767Z,55.57
2022-10-05T11:55:14.021Z,55.11
2022-10-05T11:57:41.934Z,52.96
2022-10-05T12:00:09.588Z,52.11
2022-10-05T12:02:39.973Z,50.99
2022-10-05T12:05:11.781Z,50.16
2022-10-05T12:07:39.582Z,49.47
2022-10-05T12:10:17.662Z,48.90
2022-10-05T12:12:45.622Z,48.79
2022-10-05T12:15:13.431Z,49.14
2022-10-05T12:17:41.532Z,49.37
2022-10-05T12:20:09.268Z,49.76
2022-10-05T12:22:37.151Z,50.86
2022-10-05T12:25:05.160Z,51.46
2022-10-05T12:27:33.119Z,51.99
2022-10-05T12:30:01.498Z,52.53
2022-10-05T12:32:29.669Z,53.15
2022-10-05T12:35:01.745Z,53.17
2022-10-05T12:37:30.198Z,53.68
2022-10-05T12:39:58.141Z,53.29
2022-10-05T12:42:26.246Z,54.02
2022-10-05T12:44:54.518Z,54.77
2022-10-05T12:47:24.110Z,55.34
2022-10-05T12:49:51.782Z,54.80
2022-10-05T12:52:19.519Z,55.13
2022-10-05T12:54:47.657Z,55.02
2022-10-05T12:57:15.490Z,55.34
2022-10-05T12:59:43.272Z,55.51
2022-10-05T13:02:11.191Z,55.26
2022-10-05T13:04:39.794Z,55.81
2022-10-05T13:07:08.073Z,55.55
2022-10-05T13:09:36.417Z,55.85
2022-10-05T13:12:05.163Z,55.90
2022-10-05T13:14:33.196Z,55.59
2022-10-05T13:17:01.007Z,55.65
2022-10-05T13:19:29.082Z,55.80
2022-10-05T13:21:56.907Z,55.29
2022-10-05T13:24:25.019Z,55.05
2022-10-05T13:26:52.910Z,54.72
2022-10-05T13:29:20.740Z,54.54
2022-10-05T13:31:49.521Z,54.18
2022-10-05T13:34:18.113Z,53.24
2022-10-05T13:36:46.092Z,53.20
2022-10-05T13:39:14.216Z,52.50
2022-10-05T13:41:43.958Z,52.70
2022-10-05T13:44:12.270Z,52.72
2022-10-05T13:46:40.385Z,51.79
2022-10-05T13:49:08.653Z,51.13
2022-10-05T13:51:36.688Z,51.17
2022-10-05T13:54:05.334Z,49.89
2022-10-05T13:56:33.401Z,49.13
2022-10-05T13:59:01.296Z,48.48
2022-10-05T14:01:29.185Z,48.07
2022-10-05T14:03:57.191Z,47.63
2022-10-05T14:06:27.917Z,48.39
2022-10-05T14:08:56.240Z,49.10
2022-10-05T14:11:24.067Z,49.03
2022-10-05T14:13:53.307Z,49.32
2022-10-05T14:16:21.598Z,48.91
2022-10-05T14:18:49.429Z,48.71
2022-10-05T14:21:17.945Z,48.31
2022-10-05T14:23:45.969Z,48.42
2022-10-05T14:26:13.691Z,48.71
2022-10-05T14:28:43.863Z,48.81
2022-10-05T14:31:11.983Z,48.50
2022-10-05T14:33:40.795Z,48.92
2022-10-05T14:36:08.593Z,48.76
2022-10-05T14:38:36.704Z,48.33
2022-10-05T14:41:04.928Z,48.09
2022-10-05T14:43:32.752Z,48.62
2022-10-05T14:46:01.947Z,48.25
2022-10-05T14:48:29.818Z,48.08
2022-10-05T14:50:57.727Z,47.88
2022-10-05T14:53:26.597Z,48.18
2022-10-05T14:55:56.047Z,47.56
2022-10-05T14:58:24.864Z,47.50
2022-10-05T15:00:53.203Z,46.88
2022-10-05T15:03:20.949Z,46.28
2022-10-05T15:05:49.376Z,46.00
2022-10-05T15:08:17.265Z,45.29
2022-10-05T15:10:45.574Z,45.00
2022-10-05T15:13:13.427Z,44.74
2022-10-05T15:15:41.420Z,43.87
2022-10-05T15:18:09.763Z,43.70
2022-10-05T15:20:37.645Z,42.96
2022-10-05T15:23:06.372Z,42.74
2022-10-05T15:25:34.179Z,42.76
2022-10-05T15:28:02.039Z,42.86
2022-10-05T15:30:30.063Z,42.29
2022-10-05T15:32:57.909Z,42.66
2022-10-05T15:35:26.147Z,42.71
2022-10-05T15:37:54.081Z,44.56
2022-10-05T15:40:22.003Z,46.54
2022-10-05T15:42:50.342Z,48.09
2022-10-05T15:45:19.413Z,49.24
2022-10-05T15:47:47.524Z,50.50
2022-10-05T15:50:15.335Z,51.57
2022-10-05T15:52:43.319Z,52.76
2022-10-05T15:55:11.051Z,53.37
2022-10-05T15:57:39.024Z,53.80
2022-10-05T16:00:07.311Z,54.04
2022-10-05T16:02:36.000Z,54.25
2022-10-05T16:05:05.020Z,55.28
2022-10-05T16:07:50.599Z,55.56
2022-10-05T16:10:18.794Z,55.70
2022-10-05T16:12:46.607Z,55.75
2022-10-05T16:15:16.480Z,56.24
2022-10-05T16:17:45.215Z,56.69
2022-10-05T16:20:14.951Z,56.96
2022-10-05T16:22:43.776Z,57.25
2022-10-05T16:25:12.226Z,57.22
2022-10-05T16:27:40.625Z,57.43
2022-10-05T16:30:09.090Z,58.01
2022-10-05T16:32:37.052Z,57.99
2022-10-05T16:35:05.387Z,58.33
2022-10-05T16:37:33.299Z,58.82
2022-10-05T16:40:00.976Z,59.13
2022-10-05T16:42:28.893Z,59.27
2022-10-05T16:44:56.933Z,59.48
2022-10-05T16:47:27.670Z,59.64
2022-10-05T16:49:55.764Z,59.71
2022-10-05T16:52:23.852Z,59.81
2022-10-05T16:54:51.649Z,60.10
2022-10-05T16:57:19.501Z,59.80
2022-10-05T16:59:48.146Z,60.29
2022-10-05T17:02:16.296Z,60.69
2022-10-05T17:04:44.169Z,60.45
2022-10-05T17:07:12.057Z,60.44
2022-10-05T17:09:40.600Z,60.83
2022-10-05T17:12:09.091Z,60.68
2022-10-05T17:14:37.002Z,60.50
2022-10-05T17:17:04.807Z,61.08
2022-10-05T17:19:32.959Z,61.52
2022-10-05T17:22:00.985Z,61.38
2022-10-05T17:24:29.746Z,61.39
2022-10-05T17:26:57.481Z,61.41
2022-10-05T17:29:25.332Z,61.14
2022-10-05T17:31:53.702Z,61.86
2022-10-05T17:34:21.569Z,61.23
2022-10-05T17:36:50.238Z,61.65
2022-10-05T17:39:18.107Z,62.06
2022-10-05T17:41:45.896Z,62.01
2022-10-05T17:44:13.867Z,61.95
2022-10-05T17:46:42.639Z,62.50
2022-10-05T17:49:11.031Z,61.94
2022-10-05T17:51:56.750Z,62.18
2022-10-05T17:54:41.774Z,62.38
2022-10-05T17:57:09.761Z,62.49
2022-10-05T17:59:37.886Z,62.60
2022-10-05T18:02:05.738Z,62.44
2022-10-05T18:04:34.194Z,62.67
2022-10-05T18:07:02.188Z,62.19
2022-10-05T18:09:31.098Z,62.20
2022-10-05T18:12:01.094Z,62.20
2022-10-05T18:14:29.011Z,62.34
2022-10-05T18:16:57.055Z,62.50
2022-10-05T18:19:24.900Z,62.74
2022-10-05T18:21:55.075Z,62.92
2022-10-05T18:24:23.798Z,63.51
2022-10-05T18:26:52.554Z,63.54
2022-10-05T18:29:40.287Z,63.00
2022-10-05T18:32:08.703Z,63.75
2022-10-05T18:34:37.566Z,63.61
2022-10-05T18:37:05.479Z,63.67
2022-10-05T18:39:33.804Z,63.73
2022-10-05T18:42:01.641Z,63.92
2022-10-05T18:44:30.650Z,63.56
2022-10-05T18:46:59.230Z,64.05
2022-10-05T18:49:27.018Z,63.97
2022-10-05T18:51:54.830Z,63.47
2022-10-05T18:54:25.310Z,64.23
2022-10-05T18:56:53.087Z,64.15
2022-10-05T18:59:24.811Z,63.96
2022-10-05T19:01:52.815Z,63.65
2022-10-05T19:04:22.525Z,63.35
2022-10-05T19:06:50.539Z,63.33
2022-10-05T19:09:18.538Z,63.72
2022-10-05T19:11:46.409Z,63.35
2022-10-05T19:14:14.314Z,63.46
2022-10-05T19:16:42.218Z,63.69
2022-10-05T19:19:10.099Z,63.72
2022-10-05T19:21:38.468Z,63.75
2022-10-05T19:24:06.378Z,63.25
2022-10-05T19:26:34.109Z,63.45
2022-10-05T19:29:02.043Z,63.37
2022-10-05T19:31:29.929Z,63.47
2022-10-05T19:33:57.921Z,63.25
2022-10-05T19:36:26.207Z,63.44
2022-10-05T19:38:54.412Z,63.44
2022-10-05T19:41:22.898Z,62.73
2022-10-05T19:43:50.872Z,63.00
2022-10-05T19:46:19.973Z,62.98
2022-10-05T19:48:48.985Z,63.59
2022-10-05T19:51:17.990Z,63.37
2022-10-05T19:53:47.169Z,62.93
2022-10-05T19:56:14.964Z,63.15
2022-10-05T19:58:42.735Z,63.52
2022-10-05T20:01:12.966Z,63.43
2022-10-05T20:03:41.278Z,63.63
2022-10-05T20:06:09.191Z,63.65
2022-10-05T20:08:37.100Z,63.49
2022-10-05T20:11:04.931Z,63.49
2022-10-05T20:13:35.629Z,63.62
2022-10-05T20:16:21.005Z,63.71
2022-10-05T20:19:06.263Z,63.67
2022-10-05T20:21:34.606Z,63.55
2022-10-05T20:24:05.185Z,63.18
2022-10-05T20:26:50.356Z,63.53
2022-10-05T20:29:18.201Z,63.40
2022-10-05T20:31:46.873Z,63.11
2022-10-05T20:34:15.220Z,63.59
2022-10-05T20:36:44.762Z,63.27
2022-10-05T20:39:13.423Z,63.00
2022-10-05T20:41:41.636Z,63.35
2022-10-05T20:44:09.365Z,62.86
2022-10-05T20:46:37.747Z,63.18
2022-10-05T20:49:08.610Z,62.78
2022-10-05T20:51:36.313Z,62.92
2022-10-05T20:54:04.346Z,62.56
2022-10-05T20:56:32.192Z,62.76
2022-10-05T20:59:00.418Z,62.79
2022-10-05T21:01:29.127Z,62.79
2022-10-05T21:03:57.237Z,62.85
2022-10-05T21:06:29.647Z,62.69
2022-10-05T21:08:57.481Z,62.50
2022-10-05T21:11:25.329Z,62.50
2022-10-05T21:13:53.914Z,62.96
2022-10-05T21:16:21.890Z,63.16
2022-10-05T21:18:49.648Z,62.67
2022-10-05T21:21:17.382Z,62.60
2022-10-05T21:23:46.019Z,62.67
2022-10-05T21:26:14.103Z,62.53
2022-10-05T21:28:41.810Z,62.79
2022-10-05T21:31:09.660Z,62.54
2022-10-05T21:33:37.501Z,62.69
2022-10-05T21:36:05.304Z,62.79
2022-10-05T21:38:33.218Z,62.46
2022-10-05T21:41:00.970Z,62.60
2022-10-05T21:43:28.818Z,62.77
2022-10-05T21:45:56.983Z,63.05
2022-10-05T21:48:25.346Z,62.62
2022-10-05T21:50:53.469Z,62.98
2022-10-05T21:53:21.274Z,62.83
2022-10-05T21:55:48.975Z,62.92
2022-10-05T21:58:16.673Z,62.70
2022-10-05T22:00:45.305Z,63.14
2022-10-05T22:03:13.092Z,63.63
2022-10-05T22:05:40.847Z,63.19
2022-10-05T22:08:08.819Z,63.92
2022-10-05T22:10:36.998Z,63.76
2022-10-05T22:13:04.688Z,64.11
2022-10-05T22:15:32.460Z,64.24
2022-10-05T22:18:00.100Z,63.89
2022-10-05T22:20:27.738Z,64.18
2022-10-05T22:22:55.469Z,64.24
2022-10-05T22:25:23.845Z,64.61
2022-10-05T22:27:51.653Z,64.49
2022-10-05T22:30:19.370Z,64.55
2022-10-05T22:32:47.520Z,64.38
2022-10-05T22:35:15.176Z,64.46
2022-10-05T22:37:42.965Z,64.85
2022-10-05T22:40:12.360Z,64.27
2022-10-05T22:42:40.631Z,65.05
2022-10-05T22:45:08.317Z,65.43
2022-10-05T22:47:35.972Z,66.31
2022-10-05T22:50:03.915Z,68.15
2022-10-05T22:52:31.568Z,68.78
2022-10-05T22:54:59.516Z,70.19
2022-10-05T22:57:27.147Z,70.65
2022-10-05T22:59:54.807Z,70.55
2022-10-05T23:02:22.699Z,71.81
2022-10-05T23:04:50.321Z,71.87
2022-10-05T23:07:17.959Z,72.37
2022-10-05T23:09:45.590Z,72.62
2022-10-05T23:12:13.504Z,72.60
2022-10-05T23:14:42.152Z,72.08
2022-10-05T23:17:09.732Z,71.86
2022-10-05T23:19:37.296Z,71.99
2022-10-05T23:22:04.925Z,71.62
2022-10-05T23:24:32.490Z,71.98
2022-10-05T23:27:00.408Z,71.83
2022-10-05T23:29:28.875Z,72.16
2022-10-05T23:31:56.519Z,72.11
2022-10-05T23:34:25.739Z,71.82
2022-10-05T23:36:53.360Z,71.86
2022-10-05T23:39:22.827Z,72.46
2022-10-05T23:41:50.550Z,72.97
2022-10-05T23:44:18.212Z,73.17
2022-10-05T23:46:45.801Z,73.02
2022-10-05T23:49:14.768Z,73.38
2022-10-05T23:51:42.940Z,74.28
2022-10-05T23:54:10.508Z,74.64
2022-10-05T23:56:38.080Z,75.45
2022-10-05T23:59:05.690Z,76.24
